Date,TemperatureHighF,TemperatureAvgF,TemperatureLowF,DewpointHighF,DewpointAvgF,DewpointLowF,HumidityHigh,HumidityAvg,HumidityLow,PressureMaxIn,PressureMinIn,WindSpeedMaxMPH,WindSpeedAvgMPH,GustSpeedMaxMPH,PrecipitationSumIn
2013-1-1,36.6,31.8,20.1,27.9,18.5,8.4,76,58,44,29.94,29.72,22,9,30,0.00
2013-1-2,28.1,20.2,10.8,16.7,8.5,-1.0,67,60,50,30.12,29.91,22,8,28,0.00
2013-1-3,24.5,15.2,7.2,9.0,0.9,-3.0,66,53,37,30.14,30.01,15,4,25,0.00
2013-1-4,37.2,30.8,19.0,25.0,20.6,8.8,79,66,55,30.01,29.81,22,7,28,0.00
2013-1-5,40.1,33.5,24.5,25.5,22.2,19.0,83,64,47,30.29,29.84,16,5,22,0.00
2013-1-6,42.6,34.7,24.5,30.2,26.9,19.9,89,74,57,30.24,29.95,18,4,25,0.00
2013-1-7,37.8,33.1,25.1,31.3,27.2,22.1,90,79,69,30.43,29.96,15,4,19,0.00
2013-1-8,46.2,39.9,34.8,32.3,29.4,27.7,86,67,50,30.38,30.26,28,8,30,0.00
2013-1-9,44.9,37.8,28.0,37.2,30.5,24.4,88,75,56,30.42,29.99,22,6,28,0.00
2013-1-10,46.2,41.9,34.3,30.0,27.0,24.9,70,56,47,30.55,30.01,28,10,34,0.00
2013-1-11,40.9,36.7,28.7,38.0,30.3,23.6,92,78,66,30.53,30.26,9,3,15,0.05
2013-1-12,45.4,42.8,39.8,42.5,40.4,37.9,96,91,86,30.26,30.14,10,4,15,0.01
2013-1-13,50.1,45.7,42.7,48.7,44.7,41.6,97,96,94,30.17,29.99,15,6,17,0.01
2013-1-14,62.1,52.1,42.4,53.0,43.5,28.7,96,75,42,30.25,29.87,23,7,26,0.00
2013-1-15,42.2,39.4,35.9,30.7,28.6,25.4,74,65,59,30.33,30.23,10,3,15,0.00
2013-1-16,38.1,34.9,32.4,36.3,31.1,25.0,95,87,60,30.27,29.83,9,3,17,0.28
2013-1-17,41.8,35.4,29.6,32.6,27.3,10.8,95,74,44,30.12,29.84,19,8,26,0.04
2013-1-18,29.7,22.5,17.7,13.0,2.4,-4.0,51,41,32,30.47,30.08,23,8,35,0.00
2013-1-19,48.8,38.9,24.9,34.9,25.4,8.7,76,59,40,30.42,29.90,28,12,36,0.00
2013-1-20,53.8,42.5,29.4,36.3,27.4,11.8,77,57,34,29.92,29.53,31,13,42,0.00
2013-1-21,29.4,25.6,21.5,22.2,9.9,2.2,88,53,37,30.11,29.81,22,5,29,0.00
2013-1-22,26.8,21.8,14.3,22.5,11.7,1.2,88,67,42,30.08,29.75,18,7,29,0.00
2013-1-23,15.8,11.4,6.6,2.2,-6.2,-11.0,64,44,30,30.15,30.07,24,8,29,0.00
2013-1-24,18.1,10.7,2.9,-5.0,-8.5,-12.0,51,41,30,30.20,30.05,29,12,37,0.00
2013-1-25,23.4,16.5,9.1,4.7,-4.1,-7.0,53,39,27,30.28,30.08,20,7,29,0.00
2013-1-26,24.5,18.9,15.0,12.2,5.8,-5.0,81,58,32,30.22,30.01,26,8,31,0.00
2013-1-27,29.4,21.6,14.9,4.9,1.5,-3.0,61,42,27,30.48,30.21,20,10,29,0.00
2013-1-28,31.6,25.0,18.0,30.9,11.2,-1.0,100,59,29,30.46,30.04,12,2,15,0.00
2013-1-29,36.6,33.1,27.8,33.8,30.4,25.2,95,90,85,30.21,30.04,11,3,16,0.11
2013-1-30,57.7,47.6,35.1,55.2,45.9,33.6,96,94,89,30.18,29.50,25,12,36,0.14
2013-1-31,58.4,46.4,30.8,55.4,36.7,16.7,96,71,40,29.59,28.98,35,15,49,0.34
2013-2-1,32.8,28.9,22.3,18.2,10.8,6.5,61,47,34,30.07,29.59,24,10,30,0.00
2013-2-2,29.3,24.6,18.4,13.0,8.1,3.4,59,49,39,30.26,30.07,16,7,21,0.00
2013-2-3,29.1,27.0,24.1,24.7,20.9,11.5,89,78,51,30.07,29.73,17,7,20,0.00
2013-2-4,30.2,25.4,21.3,19.1,11.4,5.2,82,57,39,29.94,29.72,26,9,31,0.00
2013-2-5,28.3,24.5,20.4,24.1,12.1,5.8,88,60,46,30.05,29.94,13,3,15,0.00
2013-2-6,38.3,31.2,26.3,28.9,22.2,11.4,92,71,50,30.30,29.94,17,4,23,0.03
2013-2-7,27.5,23.4,19.1,17.8,5.6,0.7,68,47,33,30.55,30.30,15,5,22,0.00
2013-2-8,33.2,30.3,24.2,30.9,26.6,18.0,100,87,68,30.53,29.61,34,14,52,0.00
2013-2-9,24.3,20.6,17.5,23.0,16.0,8.9,94,83,66,30.16,29.55,43,20,56,0.00
2013-2-10,38.4,24.9,15.8,15.2,8.6,3.2,66,51,28,30.40,30.16,22,5,27,0.00
2013-2-11,43.8,35.6,24.3,43.0,30.0,7.7,100,81,42,30.37,29.61,18,5,25,0.34
2013-2-12,44.9,39.1,35.5,35.9,30.2,27.6,96,71,52,29.87,29.60,26,9,29,0.00
2013-2-13,40.8,35.0,30.9,27.8,25.4,23.6,75,68,53,29.87,29.81,11,5,17,0.00
2013-6-18,69.8,26.4,57.9,61.0,-35.1,-99.9,100,91,66,29.98,29.90,9,-596,20,0.08
2013-6-19,69.5,31.0,61.3,54.0,-29.2,-99.9,100,80,45,30.17,29.94,10,-529,18,0.00
2013-6-20,71.3,31.8,64.3,60.0,-28.4,-99.9,100,83,48,30.29,30.17,10,-540,17,0.00
2013-6-21,77.7,34.8,67.7,64.0,-24.8,-99.9,100,83,58,30.27,30.21,9,-537,14,0.00
2013-6-22,82.4,34.2,69.9,64.0,-28.2,-99.9,100,82,48,30.24,30.13,13,-557,22,0.00
2013-6-23,86.9,36.0,71.0,72.0,-24.0,-99.9,100,85,58,30.17,29.99,15,-546,24,0.00
2013-6-24,93.7,36.6,82.9,72.0,-30.6,-99.9,100,81,44,30.03,29.87,15,-593,31,0.00
2013-6-25,90.7,36.3,80.9,72.0,-29.0,-99.9,100,82,46,29.93,29.74,10,-582,17,0.00
2013-6-26,81.6,27.8,69.6,70.0,-39.0,-99.9,100,91,61,29.90,29.73,7,-639,13,0.04
2013-6-27,68.3,18.8,63.2,65.0,-52.6,-99.9,100,98,87,29.91,29.81,7,-715,14,0.03
2013-6-28,74.5,22.5,69.1,71.0,-47.1,-99.9,100,97,88,29.81,29.54,15,-686,28,0.00
2013-6-29,76.5,22.8,72.0,70.0,-48.5,-99.9,100,94,71,29.75,29.56,16,-693,25,0.00
2013-6-30,77.6,35.0,70.2,71.0,-20.7,-99.9,100,93,79,29.97,29.75,12,-532,20,0.00
2013-7-1,76.7,13.2,70.9,72.0,-69.5,-99.9,100,98,85,30.12,29.97,11,-824,26,0.00
2013-7-2,78.7,23.4,59.7,73.0,-42.7,-99.9,100,97,79,30.26,30.12,8,-652,15,0.00
2013-7-3,87.9,36.9,71.3,74.0,-22.1,-99.9,100,87,60,30.25,30.15,11,-543,19,0.00
2013-7-4,90.6,38.5,81.7,76.0,-22.3,-99.9,100,85,60,30.23,30.10,10,-554,16,0.00
2013-7-5,92.1,38.1,83.3,76.0,-24.0,-99.9,100,85,56,30.18,30.04,11,-565,18,0.00
2013-7-6,90.0,39.4,84.5,75.0,-22.7,-99.9,100,82,52,30.09,29.99,10,-551,19,0.00
2013-7-7,90.4,36.5,79.1,72.0,-28.3,-99.9,100,81,46,30.03,29.92,9,-572,17,0.00
2013-7-8,75.9,25.2,67.7,70.0,-40.8,-99.9,100,95,81,30.10,29.93,9,-645,16,0.00
2013-7-9,-200.0,0.0,200.0,-99.9,-99.9,-99.9,100,100,100,30.10,30.10,0,-999,0,0.00